Coniston, Canada
Current Conditions -  °F | °C
As of 5:00 PM on Monday 26 Jan 2015 (Local Time) from CYSB Reporting Station
Scattered Clouds Scattered Clouds  
Wind Chill: -7°   Ceiling: Unl
Heat Index:   Visibility: 20mi
Dew Point: -6°   Wind: 7mph
Humidity: 61%   Direction: 50°NE
Pressure: 30.02"   Gusts: NA
Location:  46.49°N, 80.85°W
Report Text: CYSB 262200Z 05006KT 20SM SCT200 M15/M21 A3002 RMK CI3 SLP204
Loading
Personal Weather Stations






























Interactive Weather Map New forecast layout! Learn more

10-Day Weather Forecast

Advertisements
Track Severe Weather on mobile